createdAt,value
2023-05-03T00:01:32.086Z,101029.13
2023-05-03T00:06:33.908Z,101039.50
2023-05-03T00:11:35.780Z,101035.31
2023-05-03T00:16:37.559Z,101033.88
2023-05-03T00:21:39.380Z,101030.53
2023-05-03T00:26:41.189Z,101028.97
2023-05-03T00:31:46.113Z,101019.56
2023-05-03T00:36:47.918Z,101018.84
2023-05-03T00:41:49.702Z,101005.19
2023-05-03T00:46:52.398Z,101005.06
2023-05-03T00:51:54.728Z,100997.34
2023-05-03T00:56:57.134Z,101002.59
2023-05-03T01:01:58.984Z,100988.22
2023-05-03T01:07:30.907Z,100994.59
2023-05-03T01:13:17.263Z,101001.63
2023-05-03T01:18:22.184Z,100997.63
2023-05-03T01:23:32.798Z,100994.25
2023-05-03T01:28:36.649Z,100994.22
2023-05-03T01:33:49.350Z,101001.41
2023-05-03T01:38:51.203Z,101007.47
2023-05-03T01:43:55.043Z,101003.28
2023-05-03T01:48:56.790Z,101013.88
2023-05-03T01:53:58.547Z,101020.75
2023-05-03T01:59:00.658Z,101027.00
2023-05-03T02:04:02.419Z,101033.97
2023-05-03T02:09:04.459Z,101044.41
2023-05-03T02:14:06.216Z,101034.25
2023-05-03T02:19:08.554Z,101038.63
2023-05-03T02:24:10.286Z,101042.16
2023-05-03T02:29:12.048Z,101037.88
2023-05-03T02:34:13.968Z,101036.41
2023-05-03T02:39:16.114Z,101031.19
2023-05-03T02:44:18.010Z,101033.72
2023-05-03T02:49:19.843Z,101031.22
2023-05-03T02:54:21.640Z,101028.69
2023-05-03T02:59:23.774Z,101025.34
2023-05-03T03:04:26.340Z,101024.59
2023-05-03T03:09:28.135Z,101025.50
2023-05-03T03:14:30.677Z,101030.69
2023-05-03T03:19:32.664Z,101024.69
2023-05-03T03:24:34.669Z,101034.19
2023-05-03T03:29:36.569Z,101026.53
2023-05-03T03:34:40.213Z,101030.06
2023-05-03T03:39:42.781Z,101021.47
2023-05-03T03:44:45.918Z,101030.16
2023-05-03T03:49:48.394Z,101038.81
2023-05-03T03:54:50.697Z,101037.09
2023-05-03T03:59:52.733Z,101035.34
2023-05-03T04:04:54.604Z,101038.81
2023-05-03T04:09:57.079Z,101037.91
2023-05-03T04:14:59.880Z,101042.94
2023-05-03T04:20:11.306Z,101037.69
2023-05-03T04:25:17.188Z,101038.59
2023-05-03T04:30:25.030Z,101034.97
2023-05-03T04:35:29.588Z,101030.44
2023-05-03T04:40:34.748Z,101035.59
2023-05-03T04:45:42.293Z,101029.44
2023-05-03T04:50:48.845Z,101043.19
2023-05-03T04:55:53.398Z,101040.34
2023-05-03T05:00:55.925Z,101044.22
2023-05-03T05:06:02.800Z,101041.06
2023-05-03T05:11:06.539Z,101040.47
2023-05-03T05:16:09.280Z,101039.31
2023-05-03T05:21:13.537Z,101051.25
2023-05-03T05:26:16.072Z,101038.81
2023-05-03T05:31:18.578Z,101032.19
2023-05-03T05:36:21.143Z,101029.50
2023-05-03T05:41:24.610Z,101029.00
2023-05-03T05:46:26.546Z,101028.72
2023-05-03T05:51:31.797Z,101054.41
2023-05-03T05:56:34.229Z,101056.03
2023-05-03T06:01:36.263Z,101055.94
2023-05-03T06:06:39.423Z,101058.44
2023-05-03T06:11:43.272Z,101060.38
2023-05-03T06:16:45.458Z,101055.53
2023-05-03T06:21:47.325Z,101055.53
2023-05-03T06:26:49.771Z,101059.53
2023-05-03T06:31:52.658Z,101057.31
2023-05-03T06:36:55.252Z,101055.91
2023-05-03T06:41:58.154Z,101063.44
2023-05-03T06:47:08.808Z,101053.56
2023-05-03T06:52:11.899Z,101059.44
2023-05-03T06:57:13.811Z,101055.22
2023-05-03T07:02:15.678Z,101057.06
2023-05-03T07:07:17.667Z,101060.50
2023-05-03T07:12:19.492Z,101057.94
2023-05-03T07:17:22.021Z,101053.50
2023-05-03T07:22:27.543Z,101035.31
2023-05-03T07:27:29.273Z,101038.44
2023-05-03T07:32:32.414Z,101024.00
2023-05-03T07:37:34.252Z,101021.91
2023-05-03T07:42:36.470Z,101022.44
2023-05-03T07:47:40.107Z,101013.34
2023-05-03T07:52:43.463Z,101006.31
2023-05-03T07:57:45.443Z,100998.28
2023-05-03T08:02:47.220Z,100993.91
2023-05-03T08:07:49.968Z,100992.47
2023-05-03T08:12:51.814Z,100990.25
2023-05-03T08:17:53.821Z,100982.22
2023-05-03T08:22:59.415Z,100999.34
2023-05-03T08:28:01.837Z,100983.25
2023-05-03T08:33:03.843Z,100988.31
2023-05-03T08:38:06.459Z,100981.22
2023-05-03T08:43:09.997Z,100972.50
2023-05-03T08:48:13.122Z,100965.88
2023-05-03T08:53:14.966Z,100964.38
2023-05-03T08:58:17.196Z,100954.69
2023-05-03T09:03:19.058Z,100953.81
2023-05-03T09:08:22.844Z,100966.47
2023-05-03T09:13:32.117Z,100956.63
2023-05-03T09:18:34.175Z,100951.03
2023-05-03T09:23:36.039Z,100948.81
2023-05-03T09:28:42.111Z,100931.13
2023-05-03T09:33:43.868Z,100937.41
2023-05-03T09:38:45.712Z,100934.50
2023-05-03T09:43:52.569Z,100931.13
2023-05-03T09:48:57.032Z,100930.59
2023-05-03T09:53:59.465Z,100940.34
2023-05-03T09:59:01.266Z,100945.81
2023-05-03T10:04:04.883Z,100946.34
2023-05-03T10:09:17.053Z,100941.41
2023-05-03T10:14:20.420Z,100938.22
2023-05-03T10:19:25.175Z,100921.00
2023-05-03T10:24:26.989Z,100915.91
2023-05-03T10:29:31.733Z,100915.59
2023-05-03T10:34:35.457Z,100910.75
2023-05-03T10:39:37.792Z,100902.63
2023-05-03T10:44:55.187Z,100902.66
2023-05-03T10:50:11.928Z,100893.81
2023-05-03T10:55:19.326Z,100893.13
2023-05-03T11:00:32.990Z,100888.22
2023-05-03T11:05:35.869Z,100893.72
2023-05-03T11:10:37.688Z,100888.00
2023-05-03T11:15:40.090Z,100880.53
2023-05-03T11:20:44.910Z,100861.88
2023-05-03T11:25:47.413Z,100865.09
2023-05-03T11:30:50.538Z,100857.53
2023-05-03T11:35:56.387Z,100848.56
2023-05-03T11:40:58.421Z,100848.38
2023-05-03T11:46:00.496Z,100850.00
2023-05-03T11:51:08.072Z,100837.88
2023-05-03T11:56:14.214Z,100833.84
2023-05-03T12:01:16.416Z,100825.28
2023-05-03T12:06:19.221Z,100825.44
2023-05-03T12:11:23.271Z,100824.78
2023-05-03T12:16:28.480Z,100825.75
2023-05-03T12:21:59.261Z,100822.28
2023-05-03T12:27:12.586Z,100807.97
2023-05-03T12:32:15.696Z,100801.16
2023-05-03T12:37:17.791Z,100792.16
2023-05-03T12:42:21.965Z,100781.94
2023-05-03T12:47:28.980Z,100760.81
2023-05-03T12:52:38.045Z,100760.16
2023-05-03T12:57:42.246Z,100760.25
2023-05-03T13:07:56.172Z,100756.66
2023-05-03T13:12:58.956Z,100758.03
2023-05-03T13:18:02.129Z,100752.09
2023-05-03T13:23:04.808Z,100737.31
2023-05-03T13:28:06.819Z,100726.00
2023-05-03T13:33:08.838Z,100727.00
2023-05-03T13:38:10.612Z,100719.63
2023-05-03T13:43:12.413Z,100703.72
2023-05-03T13:48:19.004Z,100707.72
2023-05-03T13:53:21.502Z,100696.50
2023-05-03T13:58:23.286Z,100685.03
2023-05-03T14:03:25.439Z,100685.44
2023-05-03T14:08:27.425Z,100669.59
2023-05-03T14:13:34.783Z,100664.53
2023-05-03T14:18:42.582Z,100657.78
2023-05-03T14:23:49.855Z,100653.56
2023-05-03T14:28:51.810Z,100649.09
2023-05-03T14:33:53.715Z,100644.78
2023-05-03T14:38:55.564Z,100626.25
2023-05-03T14:43:57.424Z,100630.00
2023-05-03T14:48:59.571Z,100614.47
2023-05-03T14:54:01.701Z,100610.84
2023-05-03T14:59:04.108Z,100616.63
2023-05-03T15:04:07.959Z,100615.41
2023-05-03T15:09:12.106Z,100616.03
2023-05-03T15:14:13.966Z,100610.47
2023-05-03T15:19:16.233Z,100596.56
2023-05-03T15:24:18.620Z,100597.59
2023-05-03T15:29:20.465Z,100594.34
2023-05-03T15:34:22.288Z,100592.34
2023-05-03T15:39:24.609Z,100584.09
2023-05-03T15:44:26.338Z,100590.13
2023-05-03T15:49:28.145Z,100584.31
2023-05-03T15:54:29.965Z,100579.56
2023-05-03T15:59:31.705Z,100573.44
2023-05-03T16:04:33.485Z,100582.22
2023-05-03T16:09:35.329Z,100580.63
2023-05-03T16:14:37.150Z,100579.47
2023-05-03T16:19:38.871Z,100579.06
2023-05-03T16:24:40.595Z,100577.06
2023-05-03T16:29:42.454Z,100573.47
2023-05-03T16:34:44.244Z,100575.69
2023-05-03T16:39:46.079Z,100582.44
2023-05-03T16:44:47.939Z,100574.50
2023-05-03T16:49:49.728Z,100570.53
2023-05-03T16:54:51.480Z,100571.53
2023-05-03T16:59:53.443Z,100566.00
2023-05-03T17:04:55.168Z,100565.28
2023-05-03T17:09:56.958Z,100565.66
2023-05-03T17:14:58.776Z,100559.88
2023-05-03T17:20:00.666Z,100565.28
2023-05-03T17:25:03.016Z,100560.84
2023-05-03T17:30:06.650Z,100560.03
2023-05-03T17:35:11.320Z,100566.53
2023-05-03T17:40:13.460Z,100558.97
2023-05-03T17:45:15.248Z,100565.84
2023-05-03T17:50:17.184Z,100566.22
2023-05-03T17:55:20.103Z,100566.56
2023-05-03T18:00:22.627Z,100564.88
2023-05-03T18:05:24.464Z,100560.03
2023-05-03T18:10:26.246Z,100558.31
2023-05-03T18:15:28.122Z,100558.50
2023-05-03T18:20:29.901Z,100561.50
2023-05-03T18:25:31.780Z,100562.13
2023-05-03T18:30:33.600Z,100568.22
2023-05-03T18:35:35.359Z,100576.84
2023-05-03T18:40:37.089Z,100574.66
2023-05-03T18:45:40.078Z,100585.09
2023-05-03T18:50:44.400Z,100587.28
2023-05-03T18:55:46.292Z,100593.44
2023-05-03T19:00:48.115Z,100593.19
2023-05-03T19:05:49.904Z,100586.44
2023-05-03T19:10:51.786Z,100597.19
2023-05-03T19:15:53.592Z,100588.88
2023-05-03T19:20:56.616Z,100604.16
2023-05-03T19:25:58.400Z,100598.06
2023-05-03T19:31:03.637Z,100603.31
2023-05-03T19:36:08.453Z,100597.91
2023-05-03T19:41:12.491Z,100602.41
2023-05-03T19:46:16.327Z,100609.63
2023-05-03T19:51:18.141Z,100611.22
2023-05-03T19:56:21.710Z,100604.81
2023-05-03T20:01:23.897Z,100615.31
2023-05-03T20:06:25.757Z,100620.44
2023-05-03T20:11:27.531Z,100623.63
2023-05-03T20:16:32.856Z,100618.97
2023-05-03T20:21:34.778Z,100626.56
2023-05-03T20:26:39.717Z,100615.81
2023-05-03T20:31:41.788Z,100612.09
2023-05-03T20:36:43.580Z,100609.13
2023-05-03T20:41:45.424Z,100604.97
2023-05-03T20:46:47.159Z,100606.25
2023-05-03T20:51:49.592Z,100604.34
2023-05-03T20:56:51.633Z,100603.06
2023-05-03T21:01:53.389Z,100606.28
2023-05-03T21:06:55.303Z,100605.84
2023-05-03T21:11:58.203Z,100601.53
2023-05-03T21:17:01.479Z,100602.78
2023-05-03T21:22:03.400Z,100609.41
2023-05-03T21:27:05.134Z,100622.06
2023-05-03T21:32:07.122Z,100622.31
2023-05-03T21:37:09.076Z,100621.91
2023-05-03T21:42:10.824Z,100617.56
2023-05-03T21:47:13.215Z,100614.47
2023-05-03T21:52:15.012Z,100614.69
2023-05-03T21:57:18.878Z,100606.66
2023-05-03T22:02:22.272Z,100603.63
2023-05-03T22:07:24.160Z,100598.56
2023-05-03T22:12:26.384Z,100587.38
2023-05-03T22:17:28.284Z,100591.03
2023-05-03T22:22:30.157Z,100592.06
2023-05-03T22:27:31.905Z,100593.28
2023-05-03T22:32:33.673Z,100592.13
2023-05-03T22:37:35.469Z,100584.44
2023-05-03T22:42:37.224Z,100585.31
2023-05-03T22:47:39.006Z,100586.94
2023-05-03T22:52:40.849Z,100583.81
2023-05-03T22:57:42.651Z,100580.16
2023-05-03T23:02:44.527Z,100587.13
2023-05-03T23:07:46.351Z,100580.94
2023-05-03T23:12:48.118Z,100582.31
2023-05-03T23:17:52.708Z,100578.16
2023-05-03T23:22:55.030Z,100576.34
2023-05-03T23:27:56.903Z,100572.38
2023-05-03T23:32:59.615Z,100578.38
2023-05-03T23:38:01.760Z,100579.03
2023-05-03T23:43:03.562Z,100577.09
2023-05-03T23:48:05.689Z,100571.09
2023-05-03T23:53:07.597Z,100566.72
2023-05-03T23:58:09.477Z,100559.63
